Time;durP1;ratioP1;P1;durP2;ratioP2;P2;SDS_P1;SDS_P2;PMS_P1;PMS_P2;Temp;Humidity;BMP_temperature;BMP_pressure;BME280_temperature;BME280_humidity;BME280_pressure;Samples;Min_cycle;Max_cycle;Signal;HPM_P1;HPM_P2
2022/06/24 00:00:31;;;;;;;1.65;0.85;;;24.70;53.60;;;;;;5108183;28;20119;-70
2022/06/24 00:02:57;;;;;;;1.25;1.15;;;24.60;53.70;;;;;;5108148;28;20031;-70
2022/06/24 00:05:27;;;;;;;1.10;0.90;;;24.60;53.70;;;;;;5108318;28;20422;-69
2022/06/24 00:07:53;;;;;;;1.52;1.13;;;24.60;53.80;;;;;;5108054;28;20040;-69
2022/06/24 00:10:24;;;;;;;1.55;1.10;;;24.60;53.80;;;;;;5109264;28;20040;-69
2022/06/24 00:12:51;;;;;;;1.10;0.82;;;24.60;53.90;;;;;;5108234;28;20042;-69
2022/06/24 00:18:19;;;;;;;1.60;1.23;;;24.50;53.90;;;;;;5151148;27;1181537;-69
2022/06/24 00:20:48;;;;;;;1.50;1.00;;;24.60;53.70;;;;;;5153021;27;20050;-69
2022/06/24 00:23:16;;;;;;;1.00;0.73;;;24.50;53.80;;;;;;5153134;27;20542;-70
2022/06/24 00:25:46;;;;;;;1.10;0.80;;;24.50;54.00;;;;;;5153215;27;20030;-69
2022/06/24 00:28:13;;;;;;;1.48;0.93;;;24.50;54.00;;;;;;5153028;27;20074;-69
2022/06/24 00:30:55;;;;;;;1.23;0.95;;;24.50;54.10;;;;;;5152847;27;20039;-70
2022/06/24 00:33:22;;;;;;;0.80;0.70;;;24.40;54.10;;;;;;5152959;27;20087;-69
2022/06/24 00:35:52;;;;;;;1.25;1.13;;;24.40;54.20;;;;;;5152763;27;20542;-69
2022/06/24 00:38:35;;;;;;;1.90;0.98;;;24.40;54.20;;;;;;5152801;27;20035;-69
2022/06/24 00:41:07;;;;;;;1.73;0.90;;;24.40;54.30;;;;;;5171465;27;20062;-70
2022/06/24 00:49:03;;;;;;;1.55;1.17;;;24.30;54.30;;;;;;5089506;27;20048;-70
2022/06/24 00:51:34;;;;;;;0.90;0.75;;;24.30;54.40;;;;;;5088092;28;20040;-69
2022/06/24 00:54:09;;;;;;;1.45;1.13;;;24.30;54.40;;;;;;5088344;28;20059;-69
2022/06/24 00:56:35;;;;;;;2.05;1.02;;;24.30;54.50;;;;;;5088035;28;20089;-71
2022/06/24 00:59:04;;;;;;;1.25;0.80;;;24.20;54.50;;;;;;5088300;28;20040;-69
2022/06/24 01:01:34;;;;;;;0.90;0.73;;;24.20;54.60;;;;;;5087956;28;20496;-71
2022/06/24 01:04:00;;;;;;;1.40;1.00;;;24.20;54.60;;;;;;5088282;28;20450;-69
2022/06/24 01:06:27;;;;;;;1.00;0.90;;;24.20;54.70;;;;;;5088133;28;20151;-69
2022/06/24 01:08:54;;;;;;;2.00;0.77;;;24.20;55.50;;;;;;5088125;28;20595;-69
2022/06/24 01:11:24;;;;;;;1.63;1.15;;;24.10;54.80;;;;;;5088048;28;20416;-69
2022/06/24 01:13:51;;;;;;;1.48;0.70;;;24.10;54.80;;;;;;5089064;28;20040;-69
2022/06/24 01:16:16;;;;;;;2.15;0.95;;;24.10;54.80;;;;;;5087923;28;20396;-69
2022/06/24 01:18:42;;;;;;;1.10;1.00;;;24.10;54.80;;;;;;5087658;28;20070;-69
2022/06/24 01:24:20;;;;;;;2.10;0.90;;;24.00;54.90;;;;;;5130335;27;20298;-69
2022/06/24 01:26:47;;;;;;;3.22;1.15;;;24.00;54.90;;;;;;5128937;28;20047;-70
2022/06/24 01:29:17;;;;;;;1.65;1.30;;;24.00;55.00;;;;;;5129031;27;20043;-69
2022/06/24 01:31:45;;;;;;;0.80;0.67;;;24.00;55.00;;;;;;5129188;27;20078;-70
2022/06/24 01:34:11;;;;;;;1.27;0.98;;;24.00;55.10;;;;;;5129197;28;20198;-69
2022/06/24 01:36:40;;;;;;;1.15;0.95;;;24.00;55.10;;;;;;5128754;28;20031;-69
2022/06/24 01:39:07;;;;;;;1.15;0.77;;;23.90;55.00;;;;;;5129108;28;20126;-71
2022/06/24 01:41:33;;;;;;;1.70;0.63;;;23.90;55.10;;;;;;5128880;28;20161;-69
2022/06/24 01:44:02;;;;;;;1.30;1.00;;;23.90;55.10;;;;;;5129940;27;20375;-71
2022/06/24 01:46:29;;;;;;;1.23;0.82;;;23.90;55.10;;;;;;5128823;28;20041;-69
2022/06/24 01:48:54;;;;;;;1.88;1.17;;;23.90;55.10;;;;;;5128573;28;20039;-69
2022/06/24 01:51:22;;;;;;;1.20;0.77;;;23.90;55.20;;;;;;5129977;28;20118;-69
2022/06/24 01:53:48;;;;;;;1.80;1.40;;;23.90;55.20;;;;;;5128630;28;20039;-69
2022/06/24 01:56:17;;;;;;;1.38;0.85;;;23.90;55.20;;;;;;5128418;28;20048;-71
2022/06/24 01:58:43;;;;;;;1.50;1.40;;;23.90;55.30;;;;;;5111737;28;20043;-69
2022/06/24 02:01:09;;;;;;;0.90;0.80;;;23.80;55.30;;;;;;5128607;28;20398;-69
2022/06/24 02:03:34;;;;;;;1.20;0.77;;;23.80;55.30;;;;;;5128107;28;20043;-69
2022/06/24 02:06:06;;;;;;;1.40;1.00;;;23.80;55.30;;;;;;5128264;28;20471;-70
2022/06/24 02:08:32;;;;;;;1.33;1.13;;;23.80;55.40;;;;;;5129590;27;20070;-69
2022/06/24 02:13:47;;;;;;;1.35;0.85;;;23.80;55.40;;;;;;5127772;28;20130;-69
2022/06/24 02:16:13;;;;;;;1.13;1.00;;;23.80;55.40;;;;;;5128200;28;20550;-69
2022/06/24 02:18:39;;;;;;;1.83;0.98;;;23.70;55.30;;;;;;5129417;27;20071;-71
2022/06/24 02:21:05;;;;;;;1.35;1.25;;;23.80;55.40;;;;;;5128052;28;20065;-70
2022/06/24 02:23:31;;;;;;;1.30;1.17;;;23.70;55.30;;;;;;5127580;28;20057;-70
2022/06/24 02:25:57;;;;;;;1.52;0.95;;;23.70;55.30;;;;;;5127850;28;20036;-69
2022/06/24 02:28:23;;;;;;;1.40;0.93;;;23.70;55.30;;;;;;5128124;28;20054;-70
2022/06/24 02:30:53;;;;;;;1.10;1.00;;;23.70;55.40;;;;;;5127900;28;20027;-69
2022/06/24 02:33:19;;;;;;;1.20;1.10;;;23.70;55.40;;;;;;5127500;28;20096;-69
2022/06/24 02:35:44;;;;;;;1.13;0.95;;;23.70;55.40;;;;;;5113823;28;20047;-69
2022/06/24 02:38:10;;;;;;;2.00;0.90;;;23.70;55.40;;;;;;5113913;28;20461;-69
2022/06/24 02:40:52;;;;;;;1.30;1.13;;;23.70;55.40;;;;;;5113981;28;20050;-69
2022/06/24 02:46:00;;;;;;;1.23;1.08;;;23.70;55.50;;;;;;5130390;27;20743;-69
2022/06/24 02:48:26;;;;;;;1.05;0.90;;;23.70;55.50;;;;;;5146482;27;20518;-70
2022/06/24 02:50:54;;;;;;;1.92;0.90;;;23.70;55.50;;;;;;5128978;28;20071;-70
2022/06/24 02:53:21;;;;;;;1.98;1.60;;;23.70;55.60;;;;;;5129197;27;20065;-70
2022/06/24 02:55:50;;;;;;;1.17;1.08;;;23.70;55.60;;;;;;5129091;28;20364;-69
2022/06/24 02:58:19;;;;;;;0.90;0.80;;;23.70;55.60;;;;;;5129164;28;20732;-70
2022/06/24 03:00:46;;;;;;;1.85;1.00;;;23.70;55.60;;;;;;5128775;28;20040;-69
2022/06/24 03:03:13;;;;;;;2.42;1.00;;;23.70;55.60;;;;;;5128703;28;20110;-69
2022/06/24 03:05:39;;;;;;;2.33;1.10;;;23.60;55.60;;;;;;5129882;27;20075;-69
2022/06/24 03:08:06;;;;;;;1.40;1.00;;;23.70;55.70;;;;;;5128611;28;20046;-69
2022/06/24 03:10:32;;;;;;;1.27;1.00;;;23.60;55.60;;;;;;5129835;27;20043;-70
2022/06/24 03:12:58;;;;;;;0.80;0.70;;;23.70;55.70;;;;;;5129913;27;20039;-70
2022/06/24 03:15:24;;;;;;;1.38;1.00;;;23.70;55.70;;;;;;5129670;27;20118;-69
2022/06/24 03:17:50;;;;;;;1.33;1.23;;;23.70;55.70;;;;;;5128741;28;20050;-69
2022/06/24 03:20:16;;;;;;;2.00;0.85;;;23.60;55.70;;;;;;5128530;27;20501;-69
2022/06/24 03:22:42;;;;;;;1.20;1.02;;;23.60;55.70;;;;;;5145649;27;20119;-69
2022/06/24 03:25:10;;;;;;;1.00;0.85;;;23.60;55.70;;;;;;5128165;28;20532;-69
2022/06/24 03:27:37;;;;;;;1.15;1.05;;;23.60;55.80;;;;;;5128328;28;20108;-70
2022/06/24 03:30:05;;;;;;;1.20;0.98;;;23.60;55.80;;;;;;5128455;28;20035;-69
2022/06/24 03:32:31;;;;;;;1.45;0.85;;;23.60;55.80;;;;;;5128171;27;20035;-69
2022/06/24 03:34:56;;;;;;;1.10;0.98;;;23.60;55.90;;;;;;5128117;28;20126;-69
2022/06/24 03:37:22;;;;;;;1.80;1.15;;;23.60;55.80;;;;;;5128317;28;20047;-69
2022/06/24 03:39:48;;;;;;;1.13;1.00;;;23.60;55.80;;;;;;5128036;28;20059;-69
2022/06/24 03:42:13;;;;;;;1.17;1.05;;;23.60;55.80;;;;;;5127841;27;20062;-69
2022/06/24 03:44:39;;;;;;;1.35;0.90;;;23.60;55.80;;;;;;5127562;28;20176;-69
2022/06/24 03:47:05;;;;;;;1.75;0.70;;;23.60;55.80;;;;;;5127855;28;20067;-69
2022/06/24 03:49:31;;;;;;;0.80;0.80;;;23.60;55.90;;;;;;5127814;28;20057;-69
2022/06/24 03:51:57;;;;;;;1.30;1.13;;;23.60;55.90;;;;;;5127754;28;20127;-69
2022/06/24 03:54:26;;;;;;;1.55;1.27;;;23.60;55.90;;;;;;5127764;28;20125;-69
2022/06/24 03:56:52;;;;;;;1.63;1.15;;;23.60;55.90;;;;;;5116557;28;20043;-70
2022/06/24 03:59:18;;;;;;;2.33;1.02;;;23.60;55.90;;;;;;5114025;28;20066;-69
2022/06/24 04:01:43;;;;;;;1.95;1.17;;;23.60;55.90;;;;;;5114085;28;20044;-69
2022/06/24 04:04:09;;;;;;;2.20;1.20;;;23.60;55.90;;;;;;5113873;28;20110;-69
2022/06/24 04:06:38;;;;;;;2.17;1.02;;;23.60;55.90;;;;;;5113735;28;20038;-69
2022/06/24 04:09:03;;;;;;;2.20;1.23;;;23.60;55.90;;;;;;5113990;28;20093;-70
2022/06/24 04:11:29;;;;;;;1.42;1.33;;;23.60;55.90;;;;;;5113891;28;20415;-70
2022/06/24 04:13:55;;;;;;;1.33;1.23;;;23.60;55.80;;;;;;5115050;28;20471;-70
2022/06/24 04:16:20;;;;;;;1.77;1.40;;;23.60;55.80;;;;;;5113664;28;20145;-69
2022/06/24 04:18:48;;;;;;;1.58;1.40;;;23.60;55.80;;;;;;5113544;28;20087;-70
2022/06/24 04:21:15;;;;;;;1.40;1.20;;;23.60;55.80;;;;;;5113970;28;20104;-69
2022/06/24 04:23:42;;;;;;;1.60;1.08;;;23.60;55.90;;;;;;5113391;28;20059;-69
2022/06/24 04:26:08;;;;;;;1.10;1.00;;;23.60;55.90;;;;;;5113716;28;20036;-69
2022/06/24 04:28:35;;;;;;;2.00;1.30;;;23.60;56.00;;;;;;5113662;28;20050;-69
2022/06/24 04:31:01;;;;;;;2.65;1.30;;;23.60;56.00;;;;;;5113384;28;20043;-69
2022/06/24 04:33:27;;;;;;;1.55;1.27;;;23.60;56.00;;;;;;5113303;28;20043;-69
2022/06/24 04:35:53;;;;;;;1.40;1.30;;;23.60;56.00;;;;;;5113315;28;20039;-70
2022/06/24 04:38:19;;;;;;;1.83;1.35;;;23.70;56.20;;;;;;5114542;27;20088;-70
2022/06/24 04:40:45;;;;;;;1.35;1.13;;;23.60;56.20;;;;;;5114529;28;20035;-69
2022/06/24 04:43:10;;;;;;;2.20;1.35;;;23.70;56.20;;;;;;5113133;28;20150;-70
2022/06/24 04:45:37;;;;;;;1.92;1.30;;;23.70;56.20;;;;;;5112864;28;20379;-70
2022/06/24 04:48:03;;;;;;;1.98;1.30;;;23.70;56.20;;;;;;5114484;28;20044;-68
2022/06/24 04:50:29;;;;;;;2.70;0.88;;;23.70;56.30;;;;;;5113614;28;20100;-70
2022/06/24 04:52:55;;;;;;;1.33;1.08;;;23.70;56.40;;;;;;5113338;28;20047;-69
2022/06/24 04:55:21;;;;;;;1.40;0.80;;;23.70;56.40;;;;;;5113414;28;20035;-70
2022/06/24 04:57:47;;;;;;;1.58;0.90;;;23.70;56.50;;;;;;5112916;28;20038;-70
2022/06/24 05:00:14;;;;;;;1.75;0.80;;;23.70;56.50;;;;;;5112795;28;20039;-70
2022/06/24 05:02:41;;;;;;;1.10;1.00;;;23.70;56.50;;;;;;5114279;28;20058;-70
2022/06/24 05:05:08;;;;;;;1.35;1.05;;;23.70;56.60;;;;;;5112727;28;20445;-69
2022/06/24 05:07:33;;;;;;;1.30;1.00;;;23.80;56.70;;;;;;5111684;28;20047;-69
2022/06/24 05:10:03;;;;;;;1.83;1.10;;;23.70;56.70;;;;;;5112572;28;20036;-70
2022/06/24 05:12:28;;;;;;;1.60;0.83;;;23.70;56.70;;;;;;5112814;28;20058;-69
2022/06/24 05:14:54;;;;;;;0.98;0.90;;;23.70;56.80;;;;;;5113995;28;20483;-69
2022/06/24 05:17:20;;;;;;;1.08;0.95;;;23.70;56.80;;;;;;5112363;28;20045;-70
2022/06/24 05:19:45;;;;;;;1.02;0.70;;;23.70;56.90;;;;;;5112605;28;20036;-69
2022/06/24 05:22:11;;;;;;;2.28;1.10;;;23.70;57.00;;;;;;5112390;28;20472;-70
2022/06/24 05:24:37;;;;;;;1.17;1.00;;;23.70;57.00;;;;;;5112228;28;20082;-69
2022/06/24 05:27:04;;;;;;;1.25;0.90;;;23.70;57.10;;;;;;5113451;28;20135;-69
2022/06/24 05:29:29;;;;;;;1.75;0.90;;;23.70;57.10;;;;;;5112148;28;20035;-70
2022/06/24 05:31:55;;;;;;;1.00;0.80;;;23.70;57.20;;;;;;5112205;28;20128;-70
2022/06/24 05:34:20;;;;;;;1.15;1.00;;;23.70;57.20;;;;;;5111217;28;20065;-70
2022/06/24 05:36:46;;;;;;;2.38;1.05;;;23.70;57.30;;;;;;5112454;28;20035;-72
2022/06/24 05:39:12;;;;;;;1.83;0.93;;;23.70;57.50;;;;;;5112692;28;20054;-71
2022/06/24 05:41:41;;;;;;;1.95;0.60;;;23.70;58.20;;;;;;5111512;28;20399;-69
2022/06/24 05:44:07;;;;;;;1.23;0.80;;;23.70;58.20;;;;;;5111290;28;20127;-68
2022/06/24 05:46:33;;;;;;;1.20;0.85;;;23.70;58.20;;;;;;5109927;28;20036;-69
2022/06/24 05:48:59;;;;;;;1.08;0.70;;;23.70;58.30;;;;;;5100007;28;20051;-68
2022/06/24 05:51:26;;;;;;;1.77;0.65;;;23.70;59.20;;;;;;5094982;28;20059;-68
2022/06/24 05:56:37;;;;;;;1.38;0.80;;;23.80;59.80;;;;;;5109059;28;20391;-68
2022/06/24 05:59:04;;;;;;;2.85;1.05;;;23.80;59.80;;;;;;5110378;28;20035;-68
2022/06/24 06:01:30;;;;;;;1.83;1.00;;;23.80;60.00;;;;;;5108511;28;20530;-68
2022/06/24 06:03:55;;;;;;;1.55;0.60;;;23.80;60.40;;;;;;5108015;28;20078;-69
2022/06/24 06:06:21;;;;;;;2.97;0.80;;;23.80;60.90;;;;;;5104474;28;20039;-68
2022/06/24 06:08:47;;;;;;;5.25;1.25;;;23.80;61.60;;;;;;5104105;28;20524;-69
2022/06/24 06:11:15;;;;;;;1.63;0.73;;;23.80;61.70;;;;;;5107048;28;20065;-70
2022/06/24 06:13:42;;;;;;;1.90;1.17;;;23.80;62.00;;;;;;5108689;28;20032;-70
2022/06/24 06:16:08;;;;;;;3.25;1.35;;;23.80;62.20;;;;;;5103519;28;20048;-69
2022/06/24 06:18:35;;;;;;;2.80;0.95;;;23.80;62.50;;;;;;5107976;28;20061;-70
2022/06/24 06:21:03;;;;;;;4.97;1.52;;;23.80;62.90;;;;;;5124980;27;20044;-69
2022/06/24 06:23:29;;;;;;;3.28;1.30;;;23.80;63.70;;;;;;5086932;28;20422;-70
2022/06/24 06:26:01;;;;;;;3.13;2.05;;;23.90;64.20;;;;;;5097152;28;20040;-70
2022/06/24 06:28:27;;;;;;;3.03;1.20;;;23.90;64.40;;;;;;5094949;28;20119;-71
2022/06/24 06:30:56;;;;;;;2.45;1.27;;;23.90;64.40;;;;;;5109413;27;20494;-72
2022/06/24 06:33:21;;;;;;;2.92;1.13;;;23.90;64.60;;;;;;5095341;28;20689;-72
2022/06/24 06:35:50;;;;;;;3.38;1.20;;;23.90;64.80;;;;;;5089589;28;20050;-72
2022/06/24 06:38:16;;;;;;;3.25;1.35;;;23.90;64.90;;;;;;5088821;28;20055;-72
2022/06/24 06:40:42;;;;;;;3.35;1.80;;;23.90;64.90;;;;;;5089899;28;20544;-71
2022/06/24 06:43:11;;;;;;;2.35;1.30;;;23.80;64.80;;;;;;5098022;28;20058;-71
2022/06/24 06:45:38;;;;;;;7.22;1.75;;;23.90;65.00;;;;;;5093073;28;20055;-71
2022/06/24 06:48:04;;;;;;;2.25;1.42;;;23.90;65.50;;;;;;5094897;28;20040;-70
2022/06/24 06:50:30;;;;;;;3.38;1.80;;;23.80;65.70;;;;;;5090997;28;20043;-71
2022/06/24 06:52:55;;;;;;;3.90;2.38;;;23.80;66.00;;;;;;5101509;28;20380;-69
2022/06/24 06:55:21;;;;;;;4.28;1.60;;;23.80;66.10;;;;;;5088645;28;20040;-70
2022/06/24 06:57:47;;;;;;;4.63;1.88;;;23.80;66.20;;;;;;5091497;28;20057;-71
2022/06/24 07:00:14;;;;;;;4.38;1.63;;;23.80;66.20;;;;;;5109037;28;20051;-70
2022/06/24 07:02:40;;;;;;;3.20;1.63;;;23.80;66.20;;;;;;5108578;28;20131;-70
2022/06/24 07:05:07;;;;;;;5.93;1.80;;;23.80;66.10;;;;;;5096884;28;20040;-69
2022/06/24 07:07:33;;;;;;;5.28;1.73;;;23.80;66.10;;;;;;5094596;28;20044;-69
2022/06/24 07:09:59;;;;;;;3.83;1.98;;;23.80;66.50;;;;;;5093954;28;20036;-69
2022/06/24 07:12:26;;;;;;;6.22;1.65;;;23.80;66.80;;;;;;5098504;28;20593;-70
2022/06/24 07:14:52;;;;;;;6.55;2.28;;;23.80;66.90;;;;;;5094040;28;20171;-69
2022/06/24 07:17:21;;;;;;;5.65;2.72;;;23.80;66.90;;;;;;5091435;28;20656;-70
2022/06/24 07:19:53;;;;;;;6.63;2.05;;;23.80;67.10;;;;;;5094005;28;20035;-68
2022/06/24 07:22:19;;;;;;;5.53;1.92;;;23.80;67.80;;;;;;5097408;28;20048;-68
2022/06/24 07:24:44;;;;;;;3.58;1.90;;;23.90;67.80;;;;;;5110395;28;20541;-68
2022/06/24 07:27:11;;;;;;;4.53;1.65;;;23.90;68.00;;;;;;5089902;28;20069;-68
2022/06/24 07:29:40;;;;;;;6.32;2.25;;;23.90;68.30;;;;;;5090488;28;20052;-68
2022/06/24 07:32:12;;;;;;;5.75;1.75;;;23.90;68.20;;;;;;5098352;28;20040;-69
2022/06/24 07:34:38;;;;;;;3.87;2.43;;;23.90;68.50;;;;;;5094854;28;20127;-71
2022/06/24 07:37:04;;;;;;;3.53;2.42;;;23.90;68.90;;;;;;5102997;28;20126;-70
2022/06/24 07:39:30;;;;;;;3.92;2.38;;;23.90;69.50;;;;;;5097897;27;20035;-68
2022/06/24 07:41:56;;;;;;;4.55;3.00;;;23.90;69.70;;;;;;5095996;28;20055;-68
2022/06/24 07:44:22;;;;;;;2.72;2.38;;;23.90;69.70;;;;;;5097944;27;20055;-67
2022/06/24 07:46:51;;;;;;;7.50;2.58;;;23.90;69.60;;;;;;5098422;27;20151;-68
2022/06/24 07:49:17;;;;;;;4.32;2.83;;;23.90;69.70;;;;;;5092791;27;20546;-68
2022/06/24 07:51:43;;;;;;;4.60;3.10;;;23.90;69.80;;;;;;5092950;28;20048;-69
2022/06/24 07:54:09;;;;;;;4.32;2.88;;;23.90;70.10;;;;;;5098322;27;20059;-70
2022/06/24 07:57:07;;;;;;;5.30;2.55;;;23.90;70.20;;;;;;5093223;28;20071;-71
2022/06/24 07:59:23;;;;;;;3.83;2.97;;;23.90;70.30;;;;;;5096067;27;20044;-69
2022/06/24 08:01:49;;;;;;;5.15;2.95;;;23.90;70.10;;;;;;5113085;27;20040;-69
2022/06/24 08:04:15;;;;;;;5.53;3.38;;;23.80;70.30;;;;;;5092379;27;20044;-71
2022/06/24 08:06:46;;;;;;;4.63;3.45;;;23.90;70.40;;;;;;5110562;27;20028;-71
2022/06/24 08:09:12;;;;;;;5.45;3.55;;;23.90;70.60;;;;;;5095443;28;20073;-75
2022/06/24 08:11:38;;;;;;;6.57;2.90;;;23.80;70.90;;;;;;5115420;27;20036;-72
2022/06/24 08:14:04;;;;;;;4.20;3.03;;;23.80;71.00;;;;;;5113592;27;20438;-74
2022/06/24 08:16:29;;;;;;;3.67;3.25;;;23.80;71.10;;;;;;5092708;28;20047;-72
2022/06/24 08:18:56;;;;;;;7.40;3.75;;;23.80;71.90;;;;;;5090207;28;20040;-71
2022/06/24 08:21:24;;;;;;;4.57;3.03;;;23.80;71.40;;;;;;5095482;28;20690;-69
2022/06/24 08:23:50;;;;;;;5.75;3.33;;;23.90;72.40;;;;;;5096704;28;20036;-72
2022/06/24 08:26:17;;;;;;;7.13;3.50;;;23.80;71.60;;;;;;5093383;28;20470;-71
2022/06/24 08:28:43;;;;;;;4.70;3.70;;;23.90;71.60;;;;;;5095375;28;20059;-73
2022/06/24 08:31:09;;;;;;;6.80;4.13;;;23.90;71.90;;;;;;5094494;28;20040;-71
2022/06/24 08:33:35;;;;;;;6.10;3.10;;;23.90;72.10;;;;;;5095051;28;20051;-71
2022/06/24 08:36:01;;;;;;;5.50;3.28;;;23.80;72.00;;;;;;5093773;27;20040;-69
2022/06/24 08:38:27;;;;;;;7.18;3.70;;;23.80;72.00;;;;;;5092667;27;20079;-72
2022/06/24 08:40:54;;;;;;;5.75;3.78;;;23.80;72.20;;;;;;5100546;28;20082;-72
2022/06/24 08:43:21;;;;;;;6.45;3.28;;;23.80;72.50;;;;;;5094287;28;20125;-74
2022/06/24 08:45:48;;;;;;;6.72;3.53;;;23.80;72.90;;;;;;5087461;28;20041;-71
2022/06/24 08:48:14;;;;;;;7.18;3.80;;;23.80;72.90;;;;;;5092188;27;20044;-72
2022/06/24 08:50:39;;;;;;;4.68;2.92;;;23.80;73.00;;;;;;5089222;28;20097;-74
2022/06/24 08:53:07;;;;;;;5.57;3.08;;;23.80;73.20;;;;;;5088941;27;20071;-71
2022/06/24 08:55:37;;;;;;;5.22;2.38;;;23.80;73.30;;;;;;5087514;28;20050;-77
2022/06/24 08:58:08;;;;;;;4.03;2.50;;;23.80;73.50;;;;;;5088176;28;20466;-75
2022/06/24 09:00:35;;;;;;;6.72;2.22;;;23.70;73.60;;;;;;5089519;27;20797;-76
2022/06/24 09:03:01;;;;;;;3.78;2.17;;;23.70;73.60;;;;;;5089880;28;20043;-71
2022/06/24 09:05:27;;;;;;;6.28;1.92;;;23.80;73.50;;;;;;5096931;27;20118;-71
2022/06/24 09:08:05;;;;;;;4.55;2.42;;;23.80;73.40;;;;;;5088764;28;20065;-73
2022/06/24 09:10:32;;;;;;;2.67;1.70;;;23.70;73.40;;;;;;5088240;28;20035;-72
2022/06/24 09:12:58;;;;;;;5.20;2.00;;;23.80;73.30;;;;;;5101803;27;20407;-73
2022/06/24 09:15:24;;;;;;;3.08;1.60;;;23.80;73.30;;;;;;5086506;28;20032;-72
2022/06/24 09:17:50;;;;;;;4.07;1.95;;;23.70;73.00;;;;;;5104254;27;20036;-73
2022/06/24 09:20:19;;;;;;;5.57;2.10;;;23.80;73.00;;;;;;5080622;28;20035;-72
2022/06/24 09:22:45;;;;;;;3.30;1.92;;;23.80;72.90;;;;;;5104228;27;20173;-75
2022/06/24 09:25:11;;;;;;;3.20;1.90;;;23.70;72.80;;;;;;5090800;28;20119;-73
2022/06/24 09:27:43;;;;;;;5.20;2.03;;;23.80;72.80;;;;;;5089828;28;20066;-75
2022/06/24 09:30:12;;;;;;;2.70;1.88;;;23.80;72.80;;;;;;5091803;28;20043;-74
2022/06/24 09:32:55;;;;;;;4.22;1.65;;;23.80;72.40;;;;;;5090956;27;20035;-74
2022/06/24 09:35:22;;;;;;;5.60;1.80;;;23.80;72.50;;;;;;5089729;28;20048;-74
2022/06/24 09:37:50;;;;;;;4.53;1.58;;;23.70;72.30;;;;;;5094292;27;20047;-73
2022/06/24 09:40:35;;;;;;;3.10;1.55;;;23.70;72.20;;;;;;5092562;28;20040;-71
2022/06/24 09:45:50;;;;;;;5.53;2.13;;;23.70;72.00;;;;;;5097972;27;20506;-75
2022/06/24 09:51:19;;;;;;;4.70;1.40;;;23.70;72.20;;;;;;5103805;27;20448;-77
2022/06/24 09:53:46;;;;;;;7.53;1.65;;;23.80;71.90;;;;;;5103742;28;20081;-76
2022/06/24 09:56:13;;;;;;;4.63;1.15;;;23.80;71.80;;;;;;5101547;28;20040;-80
2022/06/24 09:58:42;;;;;;;4.82;1.45;;;23.80;71.60;;;;;;5095643;28;20119;-70
2022/06/24 10:01:08;;;;;;;2.58;1.25;;;23.80;71.60;;;;;;5098340;28;20039;-73
2022/06/24 10:03:35;;;;;;;4.20;1.45;;;23.90;71.70;;;;;;5115950;27;20959;-72
2022/06/24 10:06:05;;;;;;;2.58;1.10;;;23.80;71.60;;;;;;5101789;28;20040;-68
2022/06/24 10:08:32;;;;;;;;;;;23.80;71.60;;;;;;5098982;28;20047;-75
2022/06/24 10:11:00;;;;;;;4.53;1.05;;;23.80;71.90;;;;;;5102864;27;19927;-79
2022/06/24 10:13:29;;;;;;;2.13;0.85;;;23.80;71.40;;;;;;5108603;27;20704;-71
2022/06/24 10:15:57;;;;;;;2.53;0.97;;;23.80;71.20;;;;;;5100952;28;20034;-72
2022/06/24 10:18:28;;;;;;;1.45;0.57;;;23.80;71.10;;;;;;5102898;28;20289;-71
2022/06/24 10:20:59;;;;;;;4.57;1.85;;;23.80;71.10;;;;;;5113865;27;20043;-73
2022/06/24 10:26:21;;;;;;;3.47;0.98;;;23.80;71.00;;;;;;5053533;27;20412;-73
2022/06/24 10:39:48;;;;;;;1.80;0.77;;;23.90;70.60;;;;;;5095889;27;20960;-72
2022/06/24 10:42:15;;;;;;;2.60;0.70;;;23.90;69.80;;;;;;5090674;28;20131;-72
2022/06/24 10:45:02;;;;;;;2.25;0.82;;;23.90;69.70;;;;;;5091974;28;20059;-72
2022/06/24 10:47:36;;;;;;;4.63;0.80;;;23.90;69.70;;;;;;5088551;28;20079;-70
2022/06/24 10:50:06;;;;;;;2.42;0.60;;;23.90;69.70;;;;;;5089955;28;20084;-70
2022/06/24 11:03:23;;;;;;;3.53;0.85;;;23.90;69.70;;;;;;5113728;27;20379;-70
2022/06/24 11:05:54;;;;;;;3.50;1.05;;;24.10;70.30;;;;;;5114098;27;20113;-71
2022/06/24 11:08:23;;;;;;;1.65;0.55;;;24.10;69.40;;;;;;5114698;27;20051;-70
2022/06/24 11:10:49;;;;;;;1.50;0.60;;;24.10;69.30;;;;;;5116371;28;20035;-72
2022/06/24 11:13:16;;;;;;;3.25;0.77;;;24.10;69.20;;;;;;5115698;28;20040;-71
2022/06/24 11:21:09;;;;;;;1.42;0.68;;;24.10;69.10;;;;;;5103941;27;20428;-71
2022/06/24 11:23:39;;;;;;;3.20;0.60;;;24.20;69.00;;;;;;5094608;28;20067;-70
2022/06/24 11:26:14;;;;;;;1.90;1.10;;;24.10;68.80;;;;;;5094429;28;20058;-73
2022/06/24 11:28:41;;;;;;;1.20;0.73;;;24.30;68.80;;;;;;5104023;28;20040;-70
2022/06/24 11:34:10;;;;;;;2.28;1.10;;;24.30;68.60;;;;;;5067606;27;20434;-69
2022/06/24 11:36:37;;;;;;;1.50;1.10;;;24.30;68.70;;;;;;5066763;28;20033;-68
2022/06/24 11:39:05;;;;;;;2.28;1.73;;;24.30;69.10;;;;;;5060848;28;20554;-67
2022/06/24 11:41:36;;;;;;;1.20;0.80;;;24.20;69.30;;;;;;5053952;28;20115;-67
2022/06/24 11:44:05;;;;;;;3.45;1.13;;;24.10;69.30;;;;;;5058195;28;20075;-67
2022/06/24 11:46:32;;;;;;;2.90;2.60;;;24.10;69.30;;;;;;5061285;28;20485;-67
2022/06/24 11:49:06;;;;;;;3.10;2.88;;;24.10;69.30;;;;;;5054149;28;20120;-67
2022/06/24 11:51:32;;;;;;;2.72;2.38;;;24.10;69.30;;;;;;5062067;28;20071;-67
2022/06/24 11:53:59;;;;;;;4.20;3.50;;;24.10;69.30;;;;;;5071756;28;20621;-67
2022/06/24 11:56:28;;;;;;;7.88;3.67;;;24.10;69.20;;;;;;5055502;28;20525;-68
2022/06/24 11:58:55;;;;;;;5.28;3.63;;;24.10;69.10;;;;;;5043382;28;20038;-67
2022/06/24 12:01:23;;;;;;;4.18;3.80;;;24.10;69.20;;;;;;5074347;28;20052;-68
2022/06/24 12:03:50;;;;;;;4.30;3.58;;;24.10;69.10;;;;;;5056295;28;20048;-69
2022/06/24 12:06:17;;;;;;;3.00;2.70;;;24.20;69.00;;;;;;5073611;28;20051;-68
2022/06/24 12:08:44;;;;;;;2.28;2.00;;;24.20;68.90;;;;;;5057484;28;20126;-69
2022/06/24 12:11:14;;;;;;;2.63;1.40;;;24.20;68.90;;;;;;5048005;28;20058;-69
2022/06/24 12:13:41;;;;;;;2.97;2.20;;;24.20;69.00;;;;;;5061325;28;20086;-68
2022/06/24 12:16:09;;;;;;;3.33;3.03;;;24.30;68.80;;;;;;5064343;28;20048;-71
2022/06/24 12:18:35;;;;;;;5.28;3.75;;;24.30;68.50;;;;;;5049459;28;20040;-71
2022/06/24 12:21:04;;;;;;;3.83;2.50;;;24.40;68.10;;;;;;5057142;28;20049;-72
2022/06/24 12:23:32;;;;;;;7.38;3.42;;;24.40;67.90;;;;;;5076483;28;20045;-69
2022/06/24 12:25:58;;;;;;;3.33;1.77;;;24.50;67.80;;;;;;5066022;28;20049;-71
2022/06/24 12:28:26;;;;;;;2.80;1.88;;;24.50;67.70;;;;;;5060935;28;20040;-71
2022/06/24 12:31:14;;;;;;;2.83;2.55;;;24.60;67.40;;;;;;5053602;28;20067;-71
2022/06/24 12:36:41;;;;;;;3.53;2.58;;;24.60;67.20;;;;;;5097263;27;20320;-71
2022/06/24 12:39:08;;;;;;;5.90;5.03;;;24.70;67.10;;;;;;5077964;28;20463;-69
2022/06/24 12:41:49;;;;;;;3.95;2.45;;;24.70;67.00;;;;;;5094372;28;20047;-68
2022/06/24 12:44:16;;;;;;;4.55;2.25;;;24.70;67.40;;;;;;5089453;28;20045;-68
2022/06/24 12:52:36;;;;;;;6.25;5.82;;;24.70;67.50;;;;;;5086237;28;20048;-68
2022/06/24 12:55:03;;;;;;;4.10;3.40;;;24.60;67.30;;;;;;5075258;28;20036;-69
2022/06/24 12:57:29;;;;;;;2.78;2.53;;;24.60;67.40;;;;;;5080947;28;20048;-71
2022/06/24 12:59:55;;;;;;;4.63;4.00;;;24.60;67.40;;;;;;5081850;28;20111;-73
2022/06/24 13:02:21;;;;;;;5.78;3.35;;;24.70;67.40;;;;;;5080682;28;20047;-72
2022/06/24 13:04:47;;;;;;;7.43;6.80;;;24.70;67.30;;;;;;5080872;28;20032;-73
2022/06/24 13:07:13;;;;;;;7.30;6.70;;;24.70;67.50;;;;;;5080827;28;20044;-73
2022/06/24 13:09:38;;;;;;;7.00;6.40;;;24.70;67.40;;;;;;5080439;28;20119;-73
2022/06/24 13:12:07;;;;;;;6.25;4.75;;;24.60;67.20;;;;;;5082853;28;20089;-73
2022/06/24 13:14:36;;;;;;;7.22;6.00;;;24.50;67.30;;;;;;5081204;28;20066;-73
2022/06/24 13:17:02;;;;;;;8.60;7.70;;;24.50;67.30;;;;;;5078224;28;20036;-74
2022/06/24 13:19:28;;;;;;;6.82;6.32;;;24.40;67.40;;;;;;5083040;28;20051;-73
2022/06/24 13:21:54;;;;;;;6.85;6.25;;;24.40;67.10;;;;;;5082523;28;20388;-73
2022/06/24 13:24:25;;;;;;;5.57;5.17;;;24.30;66.90;;;;;;5081339;28;20116;-74
2022/06/24 13:26:51;;;;;;;5.13;4.55;;;24.40;67.10;;;;;;5081006;28;20036;-75
2022/06/24 13:29:17;;;;;;;8.38;7.60;;;24.40;67.20;;;;;;5080816;28;20785;-75
2022/06/24 13:31:43;;;;;;;4.78;4.38;;;24.50;67.60;;;;;;5081019;28;20033;-75
2022/06/24 13:34:09;;;;;;;6.97;6.38;;;24.50;67.70;;;;;;5081032;28;20085;-74
2022/06/24 13:36:35;;;;;;;7.55;6.30;;;24.50;67.50;;;;;;5076941;28;20040;-72
2022/06/24 13:39:00;;;;;;;6.93;4.40;;;24.60;67.30;;;;;;5077756;28;20170;-73
2022/06/24 13:41:26;;;;;;;6.18;5.63;;;24.60;67.10;;;;;;5080537;28;20040;-76
2022/06/24 13:43:52;;;;;;;4.65;4.25;;;24.60;66.70;;;;;;5080118;28;20144;-74
2022/06/24 13:46:20;;;;;;;3.75;3.25;;;24.70;66.60;;;;;;5076572;28;20041;-81
2022/06/24 13:48:45;;;;;;;7.53;3.25;;;24.80;66.40;;;;;;5067367;28;20036;-78
2022/06/24 13:51:11;;;;;;;2.90;2.67;;;24.80;66.30;;;;;;5068087;28;20041;-79
2022/06/24 13:53:37;;;;;;;6.15;4.60;;;24.80;66.20;;;;;;5069644;28;20072;-78
2022/06/24 13:56:03;;;;;;;5.38;3.78;;;24.90;65.80;;;;;;5068558;28;20131;-78